sensor_id;sensor_type;location;lat;lon;timestamp;pressure;altitude;pressure_sealevel;temperature;humidity
30021;BME280;16861;52.294;7.760;2023-01-28T04:38:14;101093.69;;;3.95;70.64
30021;BME280;16861;52.294;7.760;2023-01-28T04:40:40;101097.16;;;3.92;70.21
30021;BME280;16861;52.294;7.760;2023-01-28T04:43:07;101101.56;;;3.88;70.20
30021;BME280;16861;52.294;7.760;2023-01-28T04:45:34;101093.75;;;3.87;69.96
30021;BME280;16861;52.294;7.760;2023-01-28T04:48:00;101110.25;;;3.86;69.96
30021;BME280;16861;52.294;7.760;2023-01-28T04:50:26;101113.75;;;3.85;70.05
30021;BME280;16861;52.294;7.760;2023-01-28T04:52:53;101112.03;;;3.82;69.61
30021;BME280;16861;52.294;7.760;2023-01-28T04:55:19;101116.38;;;3.80;69.98
30021;BME280;16861;52.294;7.760;2023-01-28T04:57:46;101110.31;;;3.76;69.96
30021;BME280;16861;52.294;7.760;2023-01-28T05:00:13;101109.44;;;3.74;69.85
30021;BME280;16861;52.294;7.760;2023-01-28T05:02:40;101102.53;;;3.73;70.10
30021;BME280;16861;52.294;7.760;2023-01-28T05:05:06;101111.22;;;3.72;69.84
30021;BME280;16861;52.294;7.760;2023-01-28T05:07:35;101106.00;;;3.72;70.06
30021;BME280;16861;52.294;7.760;2023-01-28T05:10:01;101111.22;;;3.72;70.00
30021;BME280;16861;52.294;7.760;2023-01-28T05:12:28;101108.63;;;3.71;70.26
30021;BME280;16861;52.294;7.760;2023-01-28T05:14:55;101113.81;;;3.72;69.87
30021;BME280;16861;52.294;7.760;2023-01-28T05:17:21;101116.44;;;3.72;69.88
30021;BME280;16861;52.294;7.760;2023-01-28T05:19:48;101124.25;;;3.74;69.77
30021;BME280;16861;52.294;7.760;2023-01-28T05:22:14;101125.97;;;3.72;70.06
30021;BME280;16861;52.294;7.760;2023-01-28T05:24:41;101132.91;;;3.73;70.13
30021;BME280;16861;52.294;7.760;2023-01-28T05:27:07;101125.09;;;3.74;70.25
30021;BME280;16861;52.294;7.760;2023-01-28T05:29:33;101122.47;;;3.73;70.50
30021;BME280;16861;52.294;7.760;2023-01-28T05:32:00;101119.88;;;3.74;69.92
30021;BME280;16861;52.294;7.760;2023-01-28T05:34:26;101117.25;;;3.74;69.65
30021;BME280;16861;52.294;7.760;2023-01-28T05:36:53;101119.03;;;3.72;69.49
30021;BME280;16861;52.294;7.760;2023-01-28T05:39:19;101112.09;;;3.71;69.26
30021;BME280;16861;52.294;7.760;2023-01-28T05:41:45;101104.28;;;3.70;69.24
30021;BME280;16861;52.294;7.760;2023-01-28T05:44:12;101099.09;;;3.68;69.15
30021;BME280;16861;52.294;7.760;2023-01-28T05:46:38;101102.56;;;3.67;69.06
30021;BME280;16861;52.294;7.760;2023-01-28T05:49:10;101091.28;;;3.65;69.64
30021;BME280;16861;52.294;7.760;2023-01-28T05:51:39;101094.78;;;3.64;69.57
30021;BME280;16861;52.294;7.760;2023-01-28T05:54:06;101100.88;;;3.63;69.53
30021;BME280;16861;52.294;7.760;2023-01-28T05:56:32;101093.91;;;3.62;68.95
30021;BME280;16861;52.294;7.760;2023-01-28T05:59:00;101095.66;;;3.61;68.81
30021;BME280;16861;52.294;7.760;2023-01-28T06:01:26;101091.34;;;3.57;68.84
30021;BME280;16861;52.294;7.760;2023-01-28T06:03:53;101094.84;;;3.56;69.19
30021;BME280;16861;52.294;7.760;2023-01-28T06:06:19;101093.09;;;3.55;69.32
30021;BME280;16861;52.294;7.760;2023-01-28T06:08:46;101091.34;;;3.56;69.31
30021;BME280;16861;52.294;7.760;2023-01-28T06:11:12;101096.56;;;3.54;69.20
30021;BME280;16861;52.294;7.760;2023-01-28T06:13:38;101098.31;;;3.54;69.06
30021;BME280;16861;52.294;7.760;2023-01-28T06:16:06;101097.44;;;3.55;68.87
30021;BME280;16861;52.294;7.760;2023-01-28T06:18:33;101091.34;;;3.54;68.98
30021;BME280;16861;52.294;7.760;2023-01-28T06:20:59;101100.94;;;3.54;69.08
30021;BME280;16861;52.294;7.760;2023-01-28T06:23:26;101101.78;;;3.54;69.00
30021;BME280;16861;52.294;7.760;2023-01-28T06:25:53;101101.78;;;3.54;68.72
30021;BME280;16861;52.294;7.760;2023-01-28T06:28:20;101100.06;;;3.53;69.05
30021;BME280;16861;52.294;7.760;2023-01-28T06:30:48;101096.56;;;3.52;68.68
30021;BME280;16861;52.294;7.760;2023-01-28T06:33:15;101093.97;;;3.52;68.85
30021;BME280;16861;52.294;7.760;2023-01-28T06:35:41;101098.34;;;3.52;68.68
30021;BME280;16861;52.294;7.760;2023-01-28T06:38:08;101100.94;;;3.50;68.73
30021;BME280;16861;52.294;7.760;2023-01-28T06:40:34;101112.22;;;3.49;69.08
30021;BME280;16861;52.294;7.760;2023-01-28T06:43:01;101114.84;;;3.49;68.65
30021;BME280;16861;52.294;7.760;2023-01-28T06:45:27;101105.28;;;3.48;68.87
30021;BME280;16861;52.294;7.760;2023-01-28T06:47:54;101109.63;;;3.49;68.56
30021;BME280;16861;52.294;7.760;2023-01-28T06:50:20;101106.16;;;3.49;68.47
30021;BME280;16861;52.294;7.760;2023-01-28T06:52:46;101109.63;;;3.49;68.11
30021;BME280;16861;52.294;7.760;2023-01-28T06:55:13;101115.69;;;3.50;68.12
30021;BME280;16861;52.294;7.760;2023-01-28T06:57:40;101116.56;;;3.49;68.62
30021;BME280;16861;52.294;7.760;2023-01-28T07:00:08;101121.78;;;3.47;67.71
30021;BME280;16861;52.294;7.760;2023-01-28T07:02:36;101122.66;;;3.45;67.79
30021;BME280;16861;52.294;7.760;2023-01-28T07:05:03;101127.03;;;3.41;67.69
30021;BME280;16861;52.294;7.760;2023-01-28T07:07:30;101127.03;;;3.38;67.92
30021;BME280;16861;52.294;7.760;2023-01-28T07:09:56;101120.94;;;3.36;67.88
30021;BME280;16861;52.294;7.760;2023-01-28T07:12:23;101121.84;;;3.35;67.85
30021;BME280;16861;52.294;7.760;2023-01-28T07:14:49;101124.47;;;3.32;68.01
30021;BME280;16861;52.294;7.760;2023-01-28T07:17:16;101114.91;;;3.31;68.37
30021;BME280;16861;52.294;7.760;2023-01-28T07:19:42;101119.28;;;3.29;67.87
30021;BME280;16861;52.294;7.760;2023-01-28T07:22:08;101127.06;;;3.29;67.69
30021;BME280;16861;52.294;7.760;2023-01-28T07:24:35;101125.34;;;3.28;67.99
30021;BME280;16861;52.294;7.760;2023-01-28T07:27:01;101125.34;;;3.28;67.92
30021;BME280;16861;52.294;7.760;2023-01-28T07:29:28;101135.75;;;3.28;68.12
30021;BME280;16861;52.294;7.760;2023-01-28T07:31:55;101135.75;;;3.28;68.16
30021;BME280;16861;52.294;7.760;2023-01-28T07:34:21;101149.63;;;3.28;68.54
30021;BME280;16861;52.294;7.760;2023-01-28T07:36:47;101151.38;;;3.28;68.56
30021;BME280;16861;52.294;7.760;2023-01-28T07:39:14;101154.81;;;3.30;68.71
30021;BME280;16861;52.294;7.760;2023-01-28T07:41:40;101153.09;;;3.32;68.73
30021;BME280;16861;52.294;7.760;2023-01-28T07:44:07;101158.28;;;3.33;68.83
30021;BME280;16861;52.294;7.760;2023-01-28T07:46:33;101160.03;;;3.34;68.31
30021;BME280;16861;52.294;7.760;2023-01-28T07:48:59;101159.16;;;3.35;68.49
30021;BME280;16861;52.294;7.760;2023-01-28T07:51:26;101156.53;;;3.37;68.70
30021;BME280;16861;52.294;7.760;2023-01-28T07:53:52;101159.13;;;3.38;68.68
30021;BME280;16861;52.294;7.760;2023-01-28T07:56:18;101178.22;;;3.39;68.89
30021;BME280;16861;52.294;7.760;2023-01-28T07:58:48;101177.31;;;3.40;67.72
30021;BME280;16861;52.294;7.760;2023-01-28T08:01:15;101167.78;;;3.44;68.62
30021;BME280;16861;52.294;7.760;2023-01-28T08:03:41;101167.78;;;3.44;68.14
30021;BME280;16861;52.294;7.760;2023-01-28T08:06:07;101186.84;;;3.44;68.37
30021;BME280;16861;52.294;7.760;2023-01-28T08:08:34;101190.34;;;3.46;68.47
30021;BME280;16861;52.294;7.760;2023-01-28T08:11:06;101198.16;;;3.48;67.62
30021;BME280;16861;52.294;7.760;2023-01-28T08:13:33;101204.19;;;3.51;68.78
30021;BME280;16861;52.294;7.760;2023-01-28T08:16:00;101212.00;;;3.55;68.45
30021;BME280;16861;52.294;7.760;2023-01-28T08:18:27;101205.03;;;3.57;68.57
30021;BME280;16861;52.294;7.760;2023-01-28T08:20:55;101212.84;;;3.60;68.45
30021;BME280;16861;52.294;7.760;2023-01-28T08:23:22;101206.75;;;3.61;68.64
30021;BME280;16861;52.294;7.760;2023-01-28T08:25:49;101210.22;;;3.64;68.14
30021;BME280;16861;52.294;7.760;2023-01-28T08:28:16;101204.16;;;3.64;68.19
30021;BME280;16861;52.294;7.760;2023-01-28T08:30:43;101221.50;;;3.67;68.24
30021;BME280;16861;52.294;7.760;2023-01-28T08:33:11;101218.88;;;3.68;67.79
30021;BME280;16861;52.294;7.760;2023-01-28T08:35:39;101224.09;;;3.68;67.77
30021;BME280;16861;52.294;7.760;2023-01-28T08:38:06;101224.09;;;3.71;68.01
30021;BME280;16861;52.294;7.760;2023-01-28T08:40:33;101215.41;;;3.72;68.52
30021;BME280;16861;52.294;7.760;2023-01-28T08:43:00;101224.94;;;3.75;68.28
30021;BME280;16861;52.294;7.760;2023-01-28T08:45:27;101229.25;;;3.74;67.97
30021;BME280;16861;52.294;7.760;2023-01-28T08:47:55;101230.97;;;3.77;67.68
30021;BME280;16861;52.294;7.760;2023-01-28T08:50:26;101217.94;;;3.78;68.17
30021;BME280;16861;52.294;7.760;2023-01-28T08:52:57;101226.66;;;3.79;67.10
30021;BME280;16861;52.294;7.760;2023-01-28T08:55:24;101237.06;;;3.82;68.28
30021;BME280;16861;52.294;7.760;2023-01-28T08:57:52;101237.03;;;3.84;68.66
30021;BME280;16861;52.294;7.760;2023-01-28T09:00:19;101233.56;;;3.85;68.33
30021;BME280;16861;52.294;7.760;2023-01-28T09:02:46;101237.03;;;3.87;68.23
30021;BME280;16861;52.294;7.760;2023-01-28T09:05:13;101244.84;;;3.87;68.15
30021;BME280;16861;52.294;7.760;2023-01-28T09:07:40;101247.44;;;3.87;68.17
30021;BME280;16861;52.294;7.760;2023-01-28T09:10:07;101256.97;;;3.88;68.06
30021;BME280;16861;52.294;7.760;2023-01-28T09:12:35;101259.59;;;3.88;67.76
30021;BME280;16861;52.294;7.760;2023-01-28T09:15:02;101256.97;;;3.89;67.78
30021;BME280;16861;52.294;7.760;2023-01-28T09:17:28;101243.94;;;3.89;68.12
30021;BME280;16861;52.294;7.760;2023-01-28T09:19:54;101241.34;;;3.91;67.77
30021;BME280;16861;52.294;7.760;2023-01-28T09:22:21;101245.66;;;3.92;67.99
30021;BME280;16861;52.294;7.760;2023-01-28T09:24:47;101226.59;;;3.93;68.33
30021;BME280;16861;52.294;7.760;2023-01-28T09:27:14;101236.13;;;3.97;68.10
30021;BME280;16861;52.294;7.760;2023-01-28T09:29:40;101236.06;;;4.02;68.23
30021;BME280;16861;52.294;7.760;2023-01-28T09:32:06;101233.44;;;4.07;68.39
30021;BME280;16861;52.294;7.760;2023-01-28T09:34:33;101247.31;;;4.12;68.07
30021;BME280;16861;52.294;7.760;2023-01-28T09:37:00;101246.41;;;4.16;68.04
30021;BME280;16861;52.294;7.760;2023-01-28T09:39:26;101242.03;;;4.20;67.87
30021;BME280;16861;52.294;7.760;2023-01-28T09:47:40;101242.84;;;4.29;64.82
30021;BME280;16861;52.294;7.760;2023-01-28T09:50:46;101243.69;;;4.36;66.43
30021;BME280;16861;52.294;7.760;2023-01-28T09:53:11;101247.09;;;4.43;66.21
30021;BME280;16861;52.294;7.760;2023-01-28T09:55:49;101251.41;;;4.47;65.71
30021;BME280;16861;52.294;7.760;2023-01-28T09:58:19;101255.72;;;4.54;68.02
30021;BME280;16861;52.294;7.760;2023-01-28T10:00:59;101260.91;;;4.57;65.32
30021;BME280;16861;52.294;7.760;2023-01-28T10:09:01;101271.22;;;4.75;65.46
30021;BME280;16861;52.294;7.760;2023-01-28T10:17:13;101267.63;;;4.88;64.61
30021;BME280;16861;52.294;7.760;2023-01-28T10:19:46;101271.91;;;4.95;65.80
30021;BME280;16861;52.294;7.760;2023-01-28T10:22:29;101264.03;;;4.97;64.40
30021;BME280;16861;52.294;7.760;2023-01-28T10:24:59;101275.28;;;5.05;67.45
30021;BME280;16861;52.294;7.760;2023-01-28T10:27:33;101269.16;;;5.09;67.26
30021;BME280;16861;52.294;7.760;2023-01-28T10:30:15;101273.47;;;5.14;64.75
30021;BME280;16861;52.294;7.760;2023-01-28T10:32:50;101276.03;;;5.18;65.38
30021;BME280;16861;52.294;7.760;2023-01-28T10:35:18;101263.81;;;5.24;66.73
30021;BME280;16861;52.294;7.760;2023-01-28T10:37:45;101251.59;;;5.26;67.09
30021;BME280;16861;52.294;7.760;2023-01-28T10:40:14;101255.94;;;5.27;66.20
30021;BME280;16861;52.294;7.760;2023-01-28T10:42:43;101248.94;;;5.30;66.95
30021;BME280;16861;52.294;7.760;2023-01-28T10:47:51;101241.03;;;5.37;65.68
30021;BME280;16861;52.294;7.760;2023-01-28T10:50:23;101249.69;;;5.43;66.27
30021;BME280;16861;52.294;7.760;2023-01-28T10:52:58;101242.66;;;5.47;64.79
30021;BME280;16861;52.294;7.760;2023-01-28T10:55:29;101253.00;;;5.55;65.65
30021;BME280;16861;52.294;7.760;2023-01-28T10:57:58;101229.44;;;5.61;66.81
30021;BME280;16861;52.294;7.760;2023-01-28T11:00:27;101225.03;;;5.66;65.67
30021;BME280;16861;52.294;7.760;2023-01-28T11:02:56;101218.88;;;5.70;66.77
30021;BME280;16861;52.294;7.760;2023-01-28T11:05:28;101217.09;;;5.71;65.05
30021;BME280;16861;52.294;7.760;2023-01-28T11:08:14;101215.34;;;5.73;64.15
30021;BME280;16861;52.294;7.760;2023-01-28T11:10:41;101209.13;;;5.82;66.94
30021;BME280;16861;52.294;7.760;2023-01-28T11:13:24;101204.75;;;5.85;64.16
30021;BME280;16861;52.294;7.760;2023-01-28T11:16:02;101202.81;;;5.97;67.01
30021;BME280;16861;52.294;7.760;2023-01-28T11:18:32;101188.81;;;6.04;66.63
30021;BME280;16861;52.294;7.760;2023-01-28T11:21:02;101200.84;;;6.15;67.04
30021;BME280;16861;52.294;7.760;2023-01-28T11:23:31;101201.53;;;6.28;67.48
30021;BME280;16861;52.294;7.760;2023-01-28T11:26:04;101196.91;;;6.44;68.03
30021;BME280;16861;52.294;7.760;2023-01-28T11:28:31;101190.53;;;6.60;68.48
30021;BME280;16861;52.294;7.760;2023-01-28T11:31:01;101201.53;;;6.81;67.73
30021;BME280;16861;52.294;7.760;2023-01-28T11:33:36;101191.53;;;7.02;66.20
30021;BME280;16861;52.294;7.760;2023-01-28T11:36:06;101189.41;;;7.23;66.36
30021;BME280;16861;52.294;7.760;2023-01-28T11:38:33;101174.25;;;7.37;66.18
30021;BME280;16861;52.294;7.760;2023-01-28T11:41:00;101173.28;;;7.43;65.88
30021;BME280;16861;52.294;7.760;2023-01-28T11:43:29;101162.66;;;7.51;66.10
30021;BME280;16861;52.294;7.760;2023-01-28T11:51:28;101126.50;;;8.03;65.42
30021;BME280;16861;52.294;7.760;2023-01-28T12:15:44;101120.69;;;11.37;56.48
30021;BME280;16861;52.294;7.760;2023-01-28T12:21:04;101116.25;;;11.15;56.00
30021;BME280;16861;52.294;7.760;2023-01-28T12:42:24;101138.81;;;10.20;55.84
30021;BME280;16861;52.294;7.760;2023-01-28T12:44:50;101127.19;;;10.00;57.51
30021;BME280;16861;52.294;7.760;2023-01-28T12:47:25;101123.56;;;9.76;56.93
30021;BME280;16861;52.294;7.760;2023-01-28T12:49:58;101135.59;;;9.55;57.63
30021;BME280;16861;52.294;7.760;2023-01-28T12:52:31;101129.22;;;9.33;58.42
30021;BME280;16861;52.294;7.760;2023-01-28T12:55:21;101132.47;;;9.11;57.28
30021;BME280;16861;52.294;7.760;2023-01-28T12:57:56;101137.34;;;8.94;59.13
30021;BME280;16861;52.294;7.760;2023-01-28T13:00:27;101127.25;;;8.78;58.80
30021;BME280;16861;52.294;7.760;2023-01-28T13:05:54;101123.63;;;8.49;57.78
30021;BME280;16861;52.294;7.760;2023-01-28T13:08:25;101125.63;;;8.39;59.95
30021;BME280;16861;52.294;7.760;2023-01-28T13:10:54;101128.53;;;8.28;60.18
30021;BME280;16861;52.294;7.760;2023-01-28T13:13:33;101134.09;;;8.14;58.34
30021;BME280;16861;52.294;7.760;2023-01-28T13:16:01;101136.06;;;8.06;60.51
30021;BME280;16861;52.294;7.760;2023-01-28T13:26:42;101118.94;;;7.53;58.87
30021;BME280;16861;52.294;7.760;2023-01-28T13:31:49;101111.38;;;7.37;61.41
30021;BME280;16861;52.294;7.760;2023-01-28T13:34:55;101092.41;;;7.27;59.01
30021;BME280;16861;52.294;7.760;2023-01-28T13:37:38;101088.16;;;7.22;59.15
30021;BME280;16861;52.294;7.760;2023-01-28T13:42:38;101082.06;;;7.20;62.49
30021;BME280;16861;52.294;7.760;2023-01-28T13:47:47;101088.28;;;7.15;61.10
30021;BME280;16861;52.294;7.760;2023-01-28T13:50:39;101072.66;;;7.12;58.74
30021;BME280;16861;52.294;7.760;2023-01-28T13:53:38;101076.22;;;7.08;58.76
30021;BME280;16861;52.294;7.760;2023-01-28T13:56:17;101061.50;;;7.02;59.44
30021;BME280;16861;52.294;7.760;2023-01-28T14:01:44;101065.34;;;6.84;59.94
30021;BME280;16861;52.294;7.760;2023-01-28T14:04:43;101060.38;;;6.72;59.13
30021;BME280;16861;52.294;7.760;2023-01-28T14:07:37;101076.25;;;6.62;60.29
30021;BME280;16861;52.294;7.760;2023-01-28T14:10:14;101086.91;;;6.51;59.30
30021;BME280;16861;52.294;7.760;2023-01-28T14:15:45;101102.03;;;6.35;60.11
30021;BME280;16861;52.294;7.760;2023-01-28T14:20:48;101119.56;;;6.29;62.75
30021;BME280;16861;52.294;7.760;2023-01-28T14:23:17;101114.47;;;6.22;62.21
30021;BME280;16861;52.294;7.760;2023-01-28T14:26:33;101111.09;;;6.16;60.12
30021;BME280;16861;52.294;7.760;2023-01-28T14:31:30;101113.00;;;6.03;61.98
30021;BME280;16861;52.294;7.760;2023-01-28T14:34:16;101111.34;;;5.95;61.41
30021;BME280;16861;52.294;7.760;2023-01-28T14:36:46;101112.28;;;5.93;62.68
30021;BME280;16861;52.294;7.760;2023-01-28T14:39:40;101115.88;;;5.85;61.05
30021;BME280;16861;52.294;7.760;2023-01-28T14:42:26;101118.53;;;5.84;61.13
30021;BME280;16861;52.294;7.760;2023-01-28T14:46:01;101112.47;;;5.80;61.28
30021;BME280;16861;52.294;7.760;2023-01-28T14:48:14;101114.22;;;5.81;62.17
30021;BME280;16861;52.294;7.760;2023-01-28T14:56:30;101101.25;;;5.73;63.41
30021;BME280;16861;52.294;7.760;2023-01-28T14:59:11;101111.81;;;5.66;61.96
30021;BME280;16861;52.294;7.760;2023-01-28T15:01:47;101122.34;;;5.61;61.86
30021;BME280;16861;52.294;7.760;2023-01-28T15:04:44;101126.75;;;5.56;61.15
30021;BME280;16861;52.294;7.760;2023-01-28T15:07:22;101117.22;;;5.53;61.86
30021;BME280;16861;52.294;7.760;2023-01-28T15:13:09;101133.75;;;5.54;63.22
30021;BME280;16861;52.294;7.760;2023-01-28T15:15:40;101130.25;;;5.53;64.37
30021;BME280;16861;52.294;7.760;2023-01-28T15:18:31;101124.22;;;5.50;61.68
30021;BME280;16861;52.294;7.760;2023-01-28T15:20:59;101121.56;;;5.54;63.53
30021;BME280;16861;52.294;7.760;2023-01-28T15:23:31;101116.38;;;5.51;62.87
30021;BME280;16861;52.294;7.760;2023-01-28T15:26:19;101124.25;;;5.46;61.79
30021;BME280;16861;52.294;7.760;2023-01-28T15:28:48;101135.59;;;5.47;63.79
30021;BME280;16861;52.294;7.760;2023-01-28T15:34:11;101146.97;;;5.40;61.98
30021;BME280;16861;52.294;7.760;2023-01-28T15:36:39;101141.72;;;5.43;63.99
30021;BME280;16861;52.294;7.760;2023-01-28T15:42:23;101147.91;;;5.35;62.62
30021;BME280;16861;52.294;7.760;2023-01-28T15:44:54;101153.09;;;5.39;64.20
30021;BME280;16861;52.294;7.760;2023-01-28T15:47:31;101160.97;;;5.34;62.21
30021;BME280;16861;52.294;7.760;2023-01-28T15:50:02;101162.75;;;5.33;63.61
30021;BME280;16861;52.294;7.760;2023-01-28T15:52:35;101160.16;;;5.30;62.82
30021;BME280;16861;52.294;7.760;2023-01-28T15:55:04;101178.44;;;5.30;63.92
30021;BME280;16861;52.294;7.760;2023-01-28T15:58:28;101173.31;;;5.24;62.65
30021;BME280;16861;52.294;7.760;2023-01-28T16:01:22;101169.81;;;5.22;61.98
30021;BME280;16861;52.294;7.760;2023-01-28T16:04:02;101172.50;;;5.17;62.41
30021;BME280;16861;52.294;7.760;2023-01-28T16:06:39;101167.34;;;5.13;62.74
30021;BME280;16861;52.294;7.760;2023-01-28T16:09:32;101162.22;;;5.03;62.40
30021;BME280;16861;52.294;7.760;2023-01-28T16:12:11;101150.09;;;4.99;63.09
30021;BME280;16861;52.294;7.760;2023-01-28T16:15:02;101157.16;;;4.86;62.46
30021;BME280;16861;52.294;7.760;2023-01-28T16:17:40;101146.81;;;4.78;62.68
30021;BME280;16861;52.294;7.760;2023-01-28T16:20:21;101146.94;;;4.67;62.69
30021;BME280;16861;52.294;7.760;2023-01-28T16:22:50;101140.03;;;4.60;63.77
30021;BME280;16861;52.294;7.760;2023-01-28T16:27:47;101152.41;;;4.41;64.03
30021;BME280;16861;52.294;7.760;2023-01-28T16:30:20;101148.13;;;4.32;64.02
30021;BME280;16861;52.294;7.760;2023-01-28T16:33:02;101145.59;;;4.24;62.81
30021;BME280;16861;52.294;7.760;2023-01-28T16:35:32;101145.63;;;4.18;63.53
30021;BME280;16861;52.294;7.760;2023-01-28T16:38:18;101137.00;;;4.10;64.63
30021;BME280;16861;52.294;7.760;2023-01-28T16:40:45;101139.66;;;4.02;64.72
30021;BME280;16861;52.294;7.760;2023-01-28T16:43:14;101124.94;;;3.96;64.92
30021;BME280;16861;52.294;7.760;2023-01-28T16:45:41;101117.16;;;3.91;64.73
30021;BME280;16861;52.294;7.760;2023-01-28T16:48:07;101129.34;;;3.88;65.06
30021;BME280;16861;52.294;7.760;2023-01-28T16:50:37;101127.66;;;3.82;65.24
30021;BME280;16861;52.294;7.760;2023-01-28T16:53:04;101130.28;;;3.81;65.43
30021;BME280;16861;52.294;7.760;2023-01-28T16:55:31;101128.56;;;3.78;65.60
30021;BME280;16861;52.294;7.760;2023-01-28T16:57:57;101123.34;;;3.76;65.31
30021;BME280;16861;52.294;7.760;2023-01-28T17:00:25;101118.16;;;3.73;65.06
30021;BME280;16861;52.294;7.760;2023-01-28T17:02:53;101119.88;;;3.73;65.34
30021;BME280;16861;52.294;7.760;2023-01-28T17:05:20;101125.97;;;3.70;65.23
30021;BME280;16861;52.294;7.760;2023-01-28T17:07:52;101125.13;;;3.68;65.29
30021;BME280;16861;52.294;7.760;2023-01-28T17:10:21;101139.03;;;3.64;65.56
30021;BME280;16861;52.294;7.760;2023-01-28T17:12:47;101137.31;;;3.61;65.49
30021;BME280;16861;52.294;7.760;2023-01-28T17:15:14;101146.03;;;3.59;65.47
30021;BME280;16861;52.294;7.760;2023-01-28T17:17:41;101157.31;;;3.56;65.75
30021;BME280;16861;52.294;7.760;2023-01-28T17:20:08;101156.44;;;3.52;65.66
30021;BME280;16861;52.294;7.760;2023-01-28T17:22:34;101166.03;;;3.52;65.52
30021;BME280;16861;52.294;7.760;2023-01-28T17:25:01;101167.75;;;3.48;65.47
30021;BME280;16861;52.294;7.760;2023-01-28T17:27:28;101161.69;;;3.46;65.89
30021;BME280;16861;52.294;7.760;2023-01-28T17:29:54;101158.25;;;3.43;65.47
30021;BME280;16861;52.294;7.760;2023-01-28T17:32:20;101164.31;;;3.40;65.60
30021;BME280;16861;52.294;7.760;2023-01-28T17:34:48;101168.69;;;3.36;66.01
30021;BME280;16861;52.294;7.760;2023-01-28T17:37:15;101158.28;;;3.35;66.06
30021;BME280;16861;52.294;7.760;2023-01-28T17:39:41;101158.28;;;3.33;66.07
30021;BME280;16861;52.294;7.760;2023-01-28T17:42:08;101169.56;;;3.32;66.20
30021;BME280;16861;52.294;7.760;2023-01-28T17:44:34;101169.56;;;3.31;66.00
30021;BME280;16861;52.294;7.760;2023-01-28T17:47:01;101155.69;;;3.30;66.71
30021;BME280;16861;52.294;7.760;2023-01-28T17:49:28;101155.69;;;3.30;66.42
30021;BME280;16861;52.294;7.760;2023-01-28T17:51:55;101160.03;;;3.30;66.54
30021;BME280;16861;52.294;7.760;2023-01-28T17:54:25;101171.31;;;3.30;66.11
30021;BME280;16861;52.294;7.760;2023-01-28T17:56:52;101173.91;;;3.32;66.67
30021;BME280;16861;52.294;7.760;2023-01-28T17:59:18;101175.66;;;3.33;66.63
30021;BME280;16861;52.294;7.760;2023-01-28T18:01:46;101175.66;;;3.34;66.86
30021;BME280;16861;52.294;7.760;2023-01-28T18:04:14;101192.97;;;3.35;66.76
30021;BME280;16861;52.294;7.760;2023-01-28T18:06:41;101188.63;;;3.39;67.28
30021;BME280;16861;52.294;7.760;2023-01-28T18:09:07;101189.50;;;3.41;66.77
30021;BME280;16861;52.294;7.760;2023-01-28T18:11:34;101206.84;;;3.44;67.17
30021;BME280;16861;52.294;7.760;2023-01-28T18:14:01;101202.47;;;3.46;66.61
30021;BME280;16861;52.294;7.760;2023-01-28T18:16:27;101206.81;;;3.47;66.77
30021;BME280;16861;52.294;7.760;2023-01-28T18:18:54;101205.97;;;3.49;66.79
30021;BME280;16861;52.294;7.760;2023-01-28T18:24:24;101213.72;;;3.54;66.80
30021;BME280;16861;52.294;7.760;2023-01-28T18:26:52;101222.41;;;3.56;66.99
30021;BME280;16861;52.294;7.760;2023-01-28T18:29:20;101218.94;;;3.59;67.03
30021;BME280;16861;52.294;7.760;2023-01-28T18:31:53;101222.38;;;3.61;66.39
30021;BME280;16861;52.294;7.760;2023-01-28T18:34:25;101211.09;;;3.63;65.43
30021;BME280;16861;52.294;7.760;2023-01-28T18:36:52;101218.00;;;3.66;66.59
30021;BME280;16861;52.294;7.760;2023-01-28T18:39:20;101218.00;;;3.66;66.41
30021;BME280;16861;52.294;7.760;2023-01-28T18:41:46;101224.97;;;3.64;66.19
30021;BME280;16861;52.294;7.760;2023-01-28T18:44:14;101222.38;;;3.62;66.08
30021;BME280;16861;52.294;7.760;2023-01-28T18:46:41;101221.53;;;3.60;66.01
30021;BME280;16861;52.294;7.760;2023-01-28T18:49:08;101215.44;;;3.58;66.46
30021;BME280;16861;52.294;7.760;2023-01-28T18:51:34;101204.16;;;3.58;66.62
30021;BME280;16861;52.294;7.760;2023-01-28T18:54:03;101211.13;;;3.57;66.32
30021;BME280;16861;52.294;7.760;2023-01-28T18:56:30;101217.19;;;3.58;66.22
30021;BME280;16861;52.294;7.760;2023-01-28T18:58:58;101213.72;;;3.57;66.33
30021;BME280;16861;52.294;7.760;2023-01-28T19:01:25;101207.63;;;3.57;66.48
30021;BME280;16861;52.294;7.760;2023-01-28T19:03:56;101213.72;;;3.56;65.60
30021;BME280;16861;52.294;7.760;2023-01-28T19:06:24;101208.50;;;3.57;66.46
30021;BME280;16861;52.294;7.760;2023-01-28T19:08:55;101216.31;;;3.57;65.30
30021;BME280;16861;52.294;7.760;2023-01-28T19:11:24;101220.66;;;3.58;66.34
30021;BME280;16861;52.294;7.760;2023-01-28T19:13:51;101217.16;;;3.59;66.13
30021;BME280;16861;52.294;7.760;2023-01-28T19:16:18;101212.84;;;3.61;66.19
30021;BME280;16861;52.294;7.760;2023-01-28T19:18:53;101218.94;;;3.60;65.32
30021;BME280;16861;52.294;7.760;2023-01-28T19:21:22;101225.84;;;3.63;66.21
30021;BME280;16861;52.294;7.760;2023-01-28T19:24:01;101228.47;;;3.60;64.31
30021;BME280;16861;52.294;7.760;2023-01-28T19:26:30;101235.41;;;3.62;66.24
30021;BME280;16861;52.294;7.760;2023-01-28T19:28:57;101221.50;;;3.63;66.65
30021;BME280;16861;52.294;7.760;2023-01-28T19:31:25;101221.50;;;3.67;66.38
30021;BME280;16861;52.294;7.760;2023-01-28T19:33:56;101217.16;;;3.67;66.41
30021;BME280;16861;52.294;7.760;2023-01-28T19:36:25;101215.41;;;3.69;66.36
30021;BME280;16861;52.294;7.760;2023-01-28T19:38:55;101204.97;;;3.69;66.25
30021;BME280;16861;52.294;7.760;2023-01-28T19:41:22;101206.69;;;3.72;66.39
30021;BME280;16861;52.294;7.760;2023-01-28T19:43:48;101204.97;;;3.72;66.33
30021;BME280;16861;52.294;7.760;2023-01-28T19:46:16;101197.16;;;3.71;66.08
30021;BME280;16861;52.294;7.760;2023-01-28T19:48:43;101189.34;;;3.69;66.24
30021;BME280;16861;52.294;7.760;2023-01-28T19:51:12;101186.75;;;3.68;65.95
30021;BME280;16861;52.294;7.760;2023-01-28T19:53:39;101185.03;;;3.65;66.22